Time;durP1;ratioP1;P1;durP2;ratioP2;P2;SDS_P1;SDS_P2;PMS_P1;PMS_P2;Temp;Humidity;BMP_temperature;BMP_pressure;BME280_temperature;BME280_humidity;BME280_pressure;Samples;Min_cycle;Max_cycle;Signal;HPM_P1;HPM_P2
2022/12/16 00:01:33;;;;;;;21.27;9.93;;;;;;;-8.79;73.31;101103.03;5110982;28;20035;-66
2022/12/16 00:03:58;;;;;;;25.73;9.85;;;;;;;-8.89;73.56;101106.13;5094429;28;20044;-67
2022/12/16 00:06:31;;;;;;;24.45;9.93;;;;;;;-8.96;73.73;101110.78;5069716;28;20526;-67
2022/12/16 00:08:57;;;;;;;21.63;9.52;;;;;;;-9.02;73.49;101111.88;5087074;28;20091;-67
2022/12/16 00:11:23;;;;;;;23.67;9.90;;;;;;;-9.08;73.69;101106.94;5112221;28;20032;-66
2022/12/16 00:13:48;;;;;;;20.80;9.27;;;;;;;-9.29;73.65;101073.97;5110896;28;20038;-66
2022/12/16 00:16:16;;;;;;;18.90;9.10;;;;;;;-9.02;73.99;101108.44;5104832;28;20050;-66
2022/12/16 00:18:42;;;;;;;19.70;9.10;;;;;;;-8.91;73.29;101107.94;5116914;28;20470;-67
2022/12/16 00:21:08;;;;;;;21.25;8.27;;;;;;;-8.93;73.18;101117.63;5103775;28;20016;-67
2022/12/16 00:23:34;;;;;;;19.50;8.98;;;;;;;-8.93;73.13;101121.06;5111406;28;20031;-66
2022/12/16 00:26:01;;;;;;;24.67;8.80;;;;;;;-8.98;73.03;101104.78;5110943;28;20039;-67
2022/12/16 00:28:26;;;;;;;18.15;8.73;;;;;;;-9.00;73.86;101114.44;5102850;28;20028;-66
2022/12/16 00:30:53;;;;;;;21.88;8.82;;;;;;;-9.10;73.33;101111.38;5115221;28;20093;-66
2022/12/16 00:33:20;;;;;;;20.60;9.07;;;;;;;-9.26;73.93;101095.53;5105334;28;20050;-67
2022/12/16 00:35:47;;;;;;;19.80;8.40;;;;;;;-9.12;73.82;101112.34;5091300;28;20040;-66
2022/12/16 00:38:13;;;;;;;18.45;8.10;;;;;;;-9.06;73.64;101115.53;5112535;28;20435;-66
2022/12/16 00:40:39;;;;;;;25.80;9.05;;;;;;;-9.04;73.56;101118.94;5101724;28;20039;-69
2022/12/16 00:43:04;;;;;;;17.00;7.90;;;;;;;-9.14;73.75;101120.22;5097403;28;20035;-66
2022/12/16 00:45:30;;;;;;;18.95;8.30;;;;;;;-9.20;74.34;101124.84;5107597;28;20409;-66
2022/12/16 00:47:55;;;;;;;19.25;8.27;;;;;;;-9.18;73.86;101120.44;5107921;28;20114;-67
2022/12/16 00:50:21;;;;;;;21.38;8.60;;;;;;;-9.11;73.70;101132.28;5113602;28;20031;-67
2022/12/16 00:52:47;;;;;;;15.02;6.93;;;;;;;-9.14;73.49;101125.44;5102429;28;20115;-66
2022/12/16 00:55:13;;;;;;;16.70;7.43;;;;;;;-9.09;74.40;101126.09;5112771;28;20040;-67
2022/12/16 00:57:39;;;;;;;12.82;6.35;;;;;;;-8.94;73.88;101129.78;5109008;28;20032;-67
2022/12/16 01:00:06;;;;;;;14.32;6.22;;;;;;;-8.78;74.41;101123.00;5106454;28;20078;-66
2022/12/16 01:02:32;;;;;;;14.18;6.55;;;;;;;-8.53;74.71;101125.38;5115952;28;20055;-66
2022/12/16 01:04:57;;;;;;;11.07;5.72;;;;;;;-8.31;74.26;101134.78;5067670;28;20042;-67
2022/12/16 01:07:23;;;;;;;14.80;6.18;;;;;;;-8.23;74.93;101131.84;5110550;28;20043;-66
2022/12/16 01:09:48;;;;;;;12.02;6.18;;;;;;;-8.11;74.37;101132.13;5109250;28;20385;-66
2022/12/16 01:12:13;;;;;;;11.10;6.40;;;;;;;-8.06;74.76;101135.34;5103922;28;20109;-67
2022/12/16 01:14:39;;;;;;;13.23;6.68;;;;;;;-7.98;74.76;101141.97;5114080;28;20034;-66
2022/12/16 01:17:05;;;;;;;13.60;6.15;;;;;;;-7.91;74.73;101139.00;5103360;28;20516;-66
2022/12/16 01:19:30;;;;;;;11.80;5.90;;;;;;;-7.76;74.88;101149.63;5110776;28;20026;-67
2022/12/16 01:21:56;;;;;;;13.90;5.82;;;;;;;-7.84;75.23;101129.13;5108997;28;20031;-66
2022/12/16 01:24:21;;;;;;;14.45;6.57;;;;;;;-7.60;75.29;101143.59;5102220;28;20036;-67
2022/12/16 01:26:47;;;;;;;14.52;6.43;;;;;;;-7.44;75.42;101146.31;5114128;28;20031;-66
2022/12/16 01:29:12;;;;;;;14.30;6.68;;;;;;;-7.48;75.52;101120.38;5104165;28;20161;-66
2022/12/16 01:31:39;;;;;;;10.25;5.43;;;;;;;-7.30;75.35;101148.25;5108573;28;20084;-67
2022/12/16 01:34:04;;;;;;;13.45;6.97;;;;;;;-7.30;74.88;101144.78;5110261;28;20105;-66
2022/12/16 01:36:30;;;;;;;11.30;5.55;;;;;;;-7.29;75.29;101144.69;5084292;28;20040;-67
2022/12/16 01:38:55;;;;;;;16.60;6.78;;;;;;;-7.19;75.48;101147.69;5115211;28;20035;-66
2022/12/16 01:41:22;;;;;;;12.50;5.80;;;;;;;-7.19;75.54;101143.31;5104306;28;20654;-66
2022/12/16 01:43:47;;;;;;;11.88;6.28;;;;;;;-7.16;75.27;101144.94;5107067;28;20055;-67
2022/12/16 01:46:21;;;;;;;12.13;6.47;;;;;;;-7.18;75.54;101152.84;5111075;28;20035;-67
2022/12/16 01:48:57;;;;;;;13.80;6.10;;;;;;;-7.41;75.12;101121.78;5100358;28;20115;-66
2022/12/16 01:51:32;;;;;;;14.13;6.70;;;;;;;-7.33;75.40;101143.16;5111345;28;20390;-67
2022/12/16 01:54:09;;;;;;;12.20;6.07;;;;;;;-7.29;75.81;101149.06;5109844;28;20027;-66
2022/12/16 01:56:38;;;;;;;11.75;6.13;;;;;;;-7.21;75.89;101146.94;5101671;27;20028;-66
2022/12/16 01:59:04;;;;;;;12.02;6.15;;;;;;;-7.20;75.29;101128.53;5113171;28;20019;-67
2022/12/16 02:01:30;;;;;;;12.95;5.93;;;;;;;-6.98;75.18;101144.00;5105997;28;20035;-66
2022/12/16 02:04:00;;;;;;;11.70;6.20;;;;;;;-6.81;75.35;101145.75;5105412;28;20108;-66
2022/12/16 02:06:27;;;;;;;14.20;6.75;;;;;;;-6.62;75.85;101145.66;5112775;28;20062;-67
2022/12/16 02:08:57;;;;;;;11.65;6.00;;;;;;;-6.50;75.82;101138.91;5101353;28;20404;-66
2022/12/16 02:12:07;;;;;;;11.75;6.07;;;;;;;-6.49;75.93;101132.72;5111681;28;20028;-66
2022/12/16 02:14:44;;;;;;;12.60;5.38;;;;;;;-6.42;76.08;101134.97;5113149;28;20052;-67
2022/12/16 02:17:21;;;;;;;11.65;5.53;;;;;;;-6.59;76.43;101121.06;5085470;28;20023;-67
2022/12/16 02:20:02;;;;;;;10.65;5.72;;;;;;;-6.46;76.41;101133.41;5107751;28;20490;-66
2022/12/16 02:22:30;;;;;;;11.55;6.40;;;;;;;-6.37;76.11;101137.31;5111083;28;20039;-67
2022/12/16 02:25:20;;;;;;;14.43;6.72;;;;;;;-6.31;76.61;101141.38;5098113;28;20043;-67
2022/12/16 02:27:57;;;;;;;13.07;6.20;;;;;;;-6.14;76.86;101149.16;5105520;28;20090;-66
2022/12/16 02:30:44;;;;;;;10.30;6.40;;;;;;;-6.01;76.57;101144.94;5110300;28;20142;-67
2022/12/16 02:33:21;;;;;;;14.48;5.90;;;;;;;-6.01;76.33;101141.50;5085242;28;20118;-67
2022/12/16 02:36:07;;;;;;;11.05;6.28;;;;;;;-6.28;76.93;101091.47;5105473;28;20036;-66
2022/12/16 02:38:35;;;;;;;13.98;5.97;;;;;;;-5.96;76.79;101148.19;5111810;28;20555;-67
2022/12/16 02:41:02;;;;;;;14.45;6.32;;;;;;;-5.93;76.91;101155.00;5081987;28;20508;-66
2022/12/16 02:43:51;;;;;;;11.13;6.25;;;;;;;-5.91;77.32;101158.34;5107904;28;20036;-67
2022/12/16 02:46:19;;;;;;;12.05;6.45;;;;;;;-5.88;77.66;101159.97;5109433;28;20400;-67
2022/12/16 02:48:45;;;;;;;9.93;5.60;;;;;;;-5.95;77.54;101138.53;5097496;28;20091;-67
2022/12/16 02:51:10;;;;;;;11.27;5.55;;;;;;;-5.79;77.46;101151.59;5093417;28;20058;-67
2022/12/16 02:53:39;;;;;;;14.57;5.80;;;;;;;-5.65;77.81;101156.91;5104610;28;20047;-67
2022/12/16 02:56:30;;;;;;;13.27;6.45;;;;;;;-5.78;77.53;101122.66;5103235;28;20048;-66
2022/12/16 02:59:17;;;;;;;10.07;6.03;;;;;;;-5.43;77.56;101157.38;5113588;28;20043;-67
2022/12/16 03:01:55;;;;;;;15.88;6.68;;;;;;;-5.31;77.55;101157.59;5105350;28;20044;-66
2022/12/16 03:04:30;;;;;;;12.30;6.53;;;;;;;-5.27;77.96;101167.81;5102074;28;20390;-67
2022/12/16 03:06:59;;;;;;;12.10;6.07;;;;;;;-5.27;78.03;101173.06;5113654;28;20410;-67
2022/12/16 03:09:30;;;;;;;13.27;6.32;;;;;;;-5.27;78.42;101169.59;5103959;28;20379;-66
2022/12/16 03:11:58;;;;;;;13.57;6.38;;;;;;;-5.45;78.16;101133.00;5104433;28;20032;-67
2022/12/16 03:14:27;;;;;;;14.73;6.55;;;;;;;-5.23;78.62;101163.25;5111872;28;20394;-67
2022/12/16 03:16:54;;;;;;;13.75;6.70;;;;;;;-5.22;78.50;101163.16;5100372;28;20039;-67
2022/12/16 03:19:23;;;;;;;11.35;6.03;;;;;;;-5.45;78.46;101119.91;5111183;27;20090;-66
2022/12/16 03:22:02;;;;;;;10.98;6.30;;;;;;;-5.26;78.71;101145.91;5107180;28;20027;-66
2022/12/16 03:24:28;;;;;;;10.35;5.75;;;;;;;-5.17;78.83;101165.50;5101324;28;20024;-66
2022/12/16 03:27:20;;;;;;;10.65;5.90;;;;;;;-5.28;78.75;101170.53;5113865;28;20051;-67
2022/12/16 03:29:55;;;;;;;11.30;6.15;;;;;;;-5.79;78.80;101138.50;5106492;28;20036;-67
2022/12/16 03:32:34;;;;;;;13.15;6.18;;;;;;;-5.78;78.65;101166.38;5101321;28;20448;-66
2022/12/16 03:35:12;;;;;;;13.48;5.82;;;;;;;-5.79;79.04;101169.94;5112343;28;20024;-67
2022/12/16 03:37:40;;;;;;;10.70;5.50;;;;;;;-5.92;78.73;101159.28;5104035;28;20031;-66
2022/12/16 03:40:09;;;;;;;9.63;5.88;;;;;;;-5.88;79.00;101166.06;5104465;28;20028;-66
2022/12/16 03:42:36;;;;;;;10.55;6.00;;;;;;;-5.93;78.92;101170.72;5112370;28;20455;-66
2022/12/16 03:45:03;;;;;;;10.95;5.93;;;;;;;-5.92;79.04;101172.41;5098651;28;20023;-66
2022/12/16 03:47:29;;;;;;;10.95;5.80;;;;;;;-5.92;79.36;101173.25;5109509;28;20039;-69
2022/12/16 03:49:55;;;;;;;12.88;6.40;;;;;;;-6.29;78.72;101134.28;5107481;28;20031;-65
2022/12/16 03:52:20;;;;;;;16.88;6.53;;;;;;;-6.18;78.92;101177.31;5101284;28;20395;-66
2022/12/16 03:54:46;;;;;;;11.57;6.18;;;;;;;-6.53;78.65;101165.25;5113142;28;20028;-66
2022/12/16 03:57:11;;;;;;;14.18;6.72;;;;;;;-6.67;78.53;101173.81;5083027;28;20065;-66
2022/12/16 03:59:37;;;;;;;11.27;5.85;;;;;;;-6.81;78.87;101177.16;5106849;28;20035;-67
2022/12/16 04:02:02;;;;;;;11.57;5.60;;;;;;;-6.82;78.96;101172.84;5106585;28;20682;-66
2022/12/16 04:04:28;;;;;;;8.63;5.38;;;;;;;-6.92;78.81;101179.44;5097572;28;20028;-67
2022/12/16 04:09:37;;;;;;;12.77;5.77;;;;;;;-7.29;77.96;101189.13;5104093;28;20100;-67
2022/12/16 04:26:11;;;;;;;14.40;5.93;;;;;;;-6.94;78.26;101197.00;5103665;28;20520;-66
2022/12/16 04:28:36;;;;;;;12.27;5.68;;;;;;;-7.02;77.57;101194.75;5112665;28;20039;-67
2022/12/16 04:31:02;;;;;;;12.93;5.88;;;;;;;-7.19;77.50;101195.59;5099439;28;20085;-67
